Sadrinsk, Russia
Current Conditions -  °F | °C
As of 3:30 PM on Thursday 27 Nov 2014 (Local Time) from USCC Reporting Station
Clear Clear  
Wind Chill:   Ceiling: Unl
Heat Index: 12°   Visibility: 6mi
Dew Point: -2°   Wind: 9mph
Humidity: 53%   Direction: 330°NNW
Pressure: 30.42"   Gusts: NA
Location:  56.07°N, 63.65°E
Report Text: USCC 271030Z 33004MPS CAVOK M11/M19 Q1030 27000060 NOSIG RMKQFE752
Loading
Personal Weather Stations






























Interactive Weather Map New forecast layout! Learn more

10-Day Weather Forecast

Advertisements
Track Severe Weather on mobile